Terminal Aerodrome Forecast
Issued by NWS Riverton, WY

Home | Current Version | Previous Version | Text Only | Print | Product List | Glossary On
Versions: 1 2 3 4 5 6 7 8 9 10 11 12 13 14 15 16 17
221
FTUS45 KRIW 230529
TAFRIW
TAF
KRIW 230529Z 2306/2406 23006KT P6SM SCT110
     FM231800 VRB05KT P6SM FEW110
     FM240300 25007KT P6SM SCT110=

USA.gov is the U.S. government's official web portal to all federal, state and local government web resources and services.